Time;durP1;ratioP1;P1;durP2;ratioP2;P2;SDS_P1;SDS_P2;PMS_P1;PMS_P2;Temp;Humidity;BMP_temperature;BMP_pressure;BME280_temperature;BME280_humidity;BME280_pressure;Samples;Min_cycle;Max_cycle;Signal;HPM_P1;HPM_P2
2022/06/06 00:04:06;;;;;;;3.70;2.20;;;;;;;;;;10403642;28;20272;-80
2022/06/06 00:09:07;;;;;;;2.00;1.80;;;;;;;;;;10402811;28;20060;-80
2022/06/06 00:14:09;;;;;;;3.92;2.65;;;;;;;;;;10386795;28;20119;-82
2022/06/06 00:19:11;;;;;;;3.90;2.30;;;;;;;;;;10372871;28;20049;-81
2022/06/06 00:24:12;;;;;;;3.30;2.85;;;;;;;;;;10399842;28;20102;-82
2022/06/06 00:29:15;;;;;;;2.65;2.40;;;;;;;;;;10423301;28;20045;-82
2022/06/06 00:39:47;;;;;;;3.55;2.92;;;;;;;;;;10351488;28;20079;-79
2022/06/06 00:45:10;;;;;;;3.28;2.70;;;;;;;;;;10340354;28;20114;-82
2022/06/06 00:50:19;;;;;;;3.35;2.53;;;;;;;;;;10314623;28;20189;-80
2022/06/06 00:55:23;;;;;;;3.10;2.80;;;;;;;;;;10366965;28;20053;-80
2022/06/06 01:00:33;;;;;;;3.50;3.20;;;;;;;;;;10381193;28;20144;-83
2022/06/06 01:05:41;;;;;;;3.00;2.72;;;;;;;;;;10388124;28;20054;-83
2022/06/06 01:10:41;;;;;;;4.05;3.17;;;;;;;;;;10400090;28;20037;-82
2022/06/06 01:16:01;;;;;;;4.93;3.83;;;;;;;;;;10367382;28;20128;-79
2022/06/06 01:21:13;;;;;;;4.60;3.42;;;;;;;;;;10378548;28;20046;-80
2022/06/06 01:26:22;;;;;;;3.80;3.38;;;;;;;;;;10396355;28;20373;-78
2022/06/06 01:31:36;;;;;;;3.75;3.28;;;;;;;;;;10371617;28;20053;-80
2022/06/06 01:36:37;;;;;;;3.80;3.15;;;;;;;;;;10384966;28;20092;-81
2022/06/06 01:41:52;;;;;;;3.72;3.30;;;;;;;;;;10363031;28;20690;-82
2022/06/06 01:46:54;;;;;;;4.00;3.63;;;;;;;;;;10394643;28;20798;-80
2022/06/06 01:52:15;;;;;;;5.93;3.92;;;;;;;;;;10395531;28;20481;-79
2022/06/06 01:57:16;;;;;;;4.40;3.53;;;;;;;;;;10378756;28;20060;-80
2022/06/06 02:02:17;;;;;;;3.70;3.30;;;;;;;;;;10356478;28;20136;-79
2022/06/06 02:07:19;;;;;;;4.30;3.33;;;;;;;;;;10368671;28;20057;-79
2022/06/06 02:12:20;;;;;;;3.95;3.58;;;;;;;;;;10367154;28;20105;-78
2022/06/06 02:17:21;;;;;;;4.93;4.07;;;;;;;;;;10367023;28;20133;-79
2022/06/06 02:22:22;;;;;;;4.93;4.03;;;;;;;;;;10379922;28;20048;-80
2022/06/06 02:27:25;;;;;;;5.20;4.57;;;;;;;;;;10394865;28;20046;-81
2022/06/06 02:32:26;;;;;;;4.13;3.72;;;;;;;;;;10364580;28;20110;-78
2022/06/06 02:37:28;;;;;;;5.32;4.03;;;;;;;;;;10391437;28;20211;-80
2022/06/06 02:42:28;;;;;;;5.10;4.53;;;;;;;;;;10387580;28;20042;-79
2022/06/06 02:47:29;;;;;;;5.78;4.72;;;;;;;;;;10376853;28;20037;-79
2022/06/06 02:52:30;;;;;;;5.70;4.80;;;;;;;;;;10392912;28;20049;-79
2022/06/06 02:57:31;;;;;;;4.85;4.35;;;;;;;;;;10377513;28;20141;-79
2022/06/06 03:02:32;;;;;;;5.68;4.88;;;;;;;;;;10416519;28;20054;-79
2022/06/06 03:07:46;;;;;;;5.20;4.70;;;;;;;;;;10422690;28;20074;-84
2022/06/06 03:12:54;;;;;;;5.47;4.60;;;;;;;;;;10405266;28;20057;-79
2022/06/06 03:24:01;;;;;;;4.90;3.92;;;;;;;;;;10424418;28;20060;-81
2022/06/06 03:29:20;;;;;;;6.70;4.45;;;;;;;;;;10443263;28;20104;-81
2022/06/06 03:34:21;;;;;;;4.53;4.13;;;;;;;;;;10368269;28;20097;-80
2022/06/06 03:39:29;;;;;;;5.25;4.25;;;;;;;;;;10353576;28;20042;-81
2022/06/06 03:44:29;;;;;;;5.13;4.60;;;;;;;;;;10394727;28;20052;-78
2022/06/06 03:49:50;;;;;;;6.10;5.00;;;;;;;;;;10389397;28;20042;-81
2022/06/06 03:54:50;;;;;;;5.40;4.90;;;;;;;;;;10378105;28;20117;-78
2022/06/06 03:59:56;;;;;;;5.67;4.83;;;;;;;;;;10367366;28;20077;-78
2022/06/06 04:04:59;;;;;;;6.05;4.68;;;;;;;;;;10391776;28;20050;-80
2022/06/06 04:10:00;;;;;;;5.07;4.57;;;;;;;;;;10412104;28;20054;-82
2022/06/06 04:15:11;;;;;;;8.00;5.22;;;;;;;;;;10395390;28;20188;-79
2022/06/06 04:20:15;;;;;;;7.15;5.88;;;;;;;;;;10367307;28;20048;-79
2022/06/06 04:25:38;;;;;;;6.13;5.07;;;;;;;;;;10393695;28;20049;-79
2022/06/06 04:30:42;;;;;;;7.95;5.80;;;;;;;;;;10354437;28;20137;-79
2022/06/06 04:36:02;;;;;;;5.38;4.75;;;;;;;;;;10359176;28;20231;-79
2022/06/06 04:41:08;;;;;;;5.53;4.93;;;;;;;;;;10373803;28;20041;-80
2022/06/06 04:46:15;;;;;;;6.43;5.45;;;;;;;;;;10400157;28;20060;-79
2022/06/06 04:51:19;;;;;;;6.55;5.50;;;;;;;;;;10392344;28;20428;-80
2022/06/06 04:56:20;;;;;;;6.93;5.78;;;;;;;;;;10416498;28;20089;-81
2022/06/06 05:01:22;;;;;;;8.05;6.63;;;;;;;;;;10425455;28;20033;-83
2022/06/06 05:06:28;;;;;;;5.95;5.28;;;;;;;;;;10400256;28;20049;-79
2022/06/06 05:11:33;;;;;;;6.65;5.82;;;;;;;;;;10395116;28;20361;-80
2022/06/06 05:16:56;;;;;;;7.38;6.68;;;;;;;;;;10399622;28;20107;-87
2022/06/06 05:22:03;;;;;;;9.52;6.47;;;;;;;;;;10375656;28;20038;-85
2022/06/06 05:27:22;;;;;;;7.40;6.40;;;;;;;;;;10400449;28;20077;-83
2022/06/06 05:33:01;;;;;;;10.00;7.03;;;;;;;;;;10392610;28;20053;-81
2022/06/06 05:38:16;;;;;;;7.68;6.20;;;;;;;;;;10267693;28;20047;-79
2022/06/06 05:43:36;;;;;;;8.50;7.05;;;;;;;;;;10280953;28;20051;-81
2022/06/06 05:48:49;;;;;;;9.60;7.53;;;;;;;;;;10317021;28;20058;-84
2022/06/06 05:53:51;;;;;;;8.90;7.57;;;;;;;;;;10418858;28;20100;-83
2022/06/06 05:58:52;;;;;;;11.32;9.60;;;;;;;;;;10387771;28;20564;-81
2022/06/06 06:04:03;;;;;;;9.27;8.00;;;;;;;;;;10418333;28;20089;-81
2022/06/06 06:09:09;;;;;;;9.18;8.02;;;;;;;;;;10426956;28;20033;-82
2022/06/06 06:14:29;;;;;;;10.15;8.57;;;;;;;;;;10445214;28;20041;-85
2022/06/06 06:19:59;;;;;;;11.52;8.45;;;;;;;;;;10436804;28;20045;-85
2022/06/06 06:25:02;;;;;;;13.35;10.30;;;;;;;;;;10414940;28;20034;-82
2022/06/06 06:30:03;;;;;;;8.77;7.83;;;;;;;;;;10410722;28;20045;-82
2022/06/06 06:35:09;;;;;;;8.80;7.55;;;;;;;;;;10382273;28;20343;-81
2022/06/06 06:40:13;;;;;;;9.73;7.93;;;;;;;;;;10411959;28;20069;-80
2022/06/06 06:45:21;;;;;;;7.47;6.78;;;;;;;;;;10422824;23;20046;-79
2022/06/06 06:50:34;;;;;;;9.25;7.75;;;;;;;;;;10328987;28;20070;-81
2022/06/06 06:56:08;;;;;;;;;;;;;;;;;;;;;
2022/06/06 07:01:22;;;;;;;8.52;7.72;;;;;;;;;;10377788;28;20030;-83
2022/06/06 07:12:19;;;;;;;10.40;7.63;;;;;;;;;;10243670;29;20075;-80
2022/06/06 07:17:21;;;;;;;7.72;6.93;;;;;;;;;;10254377;28;20051;-84
2022/06/06 07:22:26;;;;;;;8.98;7.78;;;;;;;;;;10246488;28;20082;-85
2022/06/06 07:27:31;;;;;;;8.43;7.63;;;;;;;;;;10338541;28;20037;-85
2022/06/06 07:32:51;;;;;;;8.82;7.18;;;;;;;;;;10309252;28;20088;-85
2022/06/06 07:38:21;;;;;;;7.50;6.80;;;;;;;;;;10342521;28;20118;-84
2022/06/06 07:44:02;;;;;;;10.70;8.55;;;;;;;;;;10346536;28;20022;-81
2022/06/06 07:49:04;;;;;;;8.73;7.82;;;;;;;;;;10350415;28;20034;-82
2022/06/06 07:54:14;;;;;;;8.40;7.32;;;;;;;;;;10361769;28;20415;-79
2022/06/06 07:59:34;;;;;;;7.20;6.50;;;;;;;;;;10324086;28;20053;-82
2022/06/06 08:04:53;;;;;;;7.97;6.78;;;;;;;;;;10306790;28;20061;-81
2022/06/06 08:10:13;;;;;;;6.88;6.03;;;;;;;;;;10302840;28;20395;-81
2022/06/06 08:15:22;;;;;;;7.13;5.80;;;;;;;;;;10291586;28;20125;-80
2022/06/06 08:20:27;;;;;;;6.07;5.43;;;;;;;;;;10316977;28;20062;-79
2022/06/06 08:25:29;;;;;;;7.55;5.78;;;;;;;;;;10342408;28;20042;-79
2022/06/06 08:30:29;;;;;;;5.70;5.10;;;;;;;;;;10307632;28;20046;-79
2022/06/06 08:41:17;;;;;;;27.00;19.02;;;;;;;;;;10331953;28;20034;-82
2022/06/06 08:46:22;;;;;;;6.63;4.70;;;;;;;;;;10311533;28;20045;-81
2022/06/06 08:51:34;;;;;;;7.18;6.45;;;;;;;;;;10296342;28;20079;-80
2022/06/06 08:56:53;;;;;;;6.30;5.70;;;;;;;;;;10302129;28;20109;-81
2022/06/06 09:02:30;;;;;;;5.60;5.00;;;;;;;;;;10333371;28;20267;-82
2022/06/06 09:07:50;;;;;;;4.93;4.43;;;;;;;;;;10339736;28;20311;-83
2022/06/06 09:13:08;;;;;;;5.20;4.70;;;;;;;;;;10386853;28;20137;-82
2022/06/06 09:18:09;;;;;;;5.10;4.65;;;;;;;;;;10337137;28;20129;-79
2022/06/06 09:23:41;;;;;;;5.13;4.25;;;;;;;;;;10352900;28;20057;-80
2022/06/06 09:29:07;;;;;;;;;;;;;;;;;;;;;
2022/06/06 09:39:25;;;;;;;13.75;9.75;;;;;;;;;;10413807;28;20080;-82
2022/06/06 09:44:43;;;;;;;4.80;4.25;;;;;;;;;;10419774;28;20048;-81
2022/06/06 09:49:44;;;;;;;4.78;4.28;;;;;;;;;;10375113;28;20470;-82
2022/06/06 10:00:24;;;;;;;5.10;4.60;;;;;;;;;;10397951;28;20061;-81
2022/06/06 10:05:38;;;;;;;5.55;4.97;;;;;;;;;;10414545;28;20034;-81
2022/06/06 10:10:39;;;;;;;4.40;4.00;;;;;;;;;;10386003;28;20064;-83
2022/06/06 10:16:01;;;;;;;4.68;3.95;;;;;;;;;;10377516;28;20042;-83
2022/06/06 10:21:26;;;;;;;4.65;4.07;;;;;;;;;;10345288;28;20088;-81
2022/06/06 10:26:35;;;;;;;3.83;3.53;;;;;;;;;;10326340;28;20062;-81
2022/06/06 10:32:23;;;;;;;4.10;3.05;;;;;;;;;;10282820;28;20547;-82
2022/06/06 10:37:36;;;;;;;4.07;2.90;;;;;;;;;;10285009;28;20060;-83
2022/06/06 10:42:56;;;;;;;4.60;4.13;;;;;;;;;;10290860;28;20027;-80
2022/06/06 10:48:10;;;;;;;4.45;3.10;;;;;;;;;;10306522;28;20086;-81
2022/06/06 10:53:31;;;;;;;3.30;3.00;;;;;;;;;;10320006;28;20068;-82
2022/06/06 10:58:51;;;;;;;3.20;2.90;;;;;;;;;;10397457;28;20042;-80
2022/06/06 11:04:14;;;;;;;5.07;3.40;;;;;;;;;;10369941;28;20140;-79
2022/06/06 11:09:23;;;;;;;4.93;4.05;;;;;;;;;;10380034;28;20071;-81
2022/06/06 11:14:40;;;;;;;10.20;7.60;;;;;;;;;;10346370;28;20123;-79
2022/06/06 11:20:04;;;;;;;3.78;2.92;;;;;;;;;;10331940;28;20034;-80
2022/06/06 11:25:21;;;;;;;2.88;2.60;;;;;;;;;;10355924;28;20064;-78
2022/06/06 11:30:33;;;;;;;3.30;3.00;;;;;;;;;;10364140;28;20076;-80
2022/06/06 11:35:44;;;;;;;5.40;3.90;;;;;;;;;;10358867;28;20065;-79
2022/06/06 11:41:03;;;;;;;3.00;2.67;;;;;;;;;;10360441;28;20129;-79
2022/06/06 11:46:05;;;;;;;5.63;4.32;;;;;;;;;;10378462;28;20038;-81
2022/06/06 11:51:14;;;;;;;2.73;2.47;;;;;;;;;;10385882;28;20054;-79
2022/06/06 11:56:52;;;;;;;2.85;2.40;;;;;;;;;;10365640;28;20291;-82
2022/06/06 12:02:14;;;;;;;3.33;2.53;;;;;;;;;;10391003;28;20073;-82
2022/06/06 12:07:20;;;;;;;3.53;2.80;;;;;;;;;;10409199;28;20040;-84
2022/06/06 12:12:24;;;;;;;3.10;2.70;;;;;;;;;;10391387;28;20084;-83
2022/06/06 12:18:04;;;;;;;3.00;2.28;;;;;;;;;;10421610;28;20037;-82
2022/06/06 12:23:10;;;;;;;4.28;2.90;;;;;;;;;;10396626;28;20073;-81
2022/06/06 12:28:32;;;;;;;6.47;4.78;;;;;;;;;;10388371;28;20092;-78
2022/06/06 12:33:51;;;;;;;2.38;2.17;;;;;;;;;;10394574;28;20152;-81
2022/06/06 12:39:11;;;;;;;1.83;1.73;;;;;;;;;;10375819;28;20109;-81
2022/06/06 12:44:31;;;;;;;3.28;2.20;;;;;;;;;;10417165;28;20051;-79
2022/06/06 12:49:34;;;;;;;3.70;2.53;;;;;;;;;;10382917;28;20053;-82
2022/06/06 13:00:12;;;;;;;5.13;3.90;;;;;;;;;;10377305;28;20084;-83
2022/06/06 13:05:33;;;;;;;2.13;1.98;;;;;;;;;;10395439;28;20052;-81
2022/06/06 13:11:00;;;;;;;5.47;4.15;;;;;;;;;;10356939;28;20045;-82
2022/06/06 13:16:19;;;;;;;3.88;3.25;;;;;;;;;;10407229;28;20033;-82
2022/06/06 13:21:42;;;;;;;3.95;3.17;;;;;;;;;;10384869;28;20038;-84
2022/06/06 13:26:48;;;;;;;3.53;2.60;;;;;;;;;;10362269;28;20054;-83
2022/06/06 13:31:54;;;;;;;8.63;5.90;;;;;;;;;;10419818;28;20054;-84
2022/06/06 13:37:04;;;;;;;2.20;2.00;;;;;;;;;;10401879;28;20126;-86
2022/06/06 13:42:05;;;;;;;3.20;2.83;;;;;;;;;;10354552;28;20041;-86
2022/06/06 13:47:23;;;;;;;3.65;2.80;;;;;;;;;;10403838;28;20107;-80
2022/06/06 13:52:44;;;;;;;17.77;13.02;;;;;;;;;;10380595;28;20045;-82
2022/06/06 13:57:50;;;;;;;5.20;4.70;;;;;;;;;;10371688;28;20041;-79
2022/06/06 14:03:10;;;;;;;5.93;4.78;;;;;;;;;;10367797;28;20049;-80
2022/06/06 14:08:20;;;;;;;5.68;4.53;;;;;;;;;;10363807;28;20102;-80
2022/06/06 14:13:31;;;;;;;4.38;3.10;;;;;;;;;;10380168;28;20062;-83
2022/06/06 14:18:37;;;;;;;3.08;2.78;;;;;;;;;;10379749;28;20073;-84
2022/06/06 14:24:18;;;;;;;3.75;2.40;;;;;;;;;;10366186;28;20117;-80
2022/06/06 14:29:38;;;;;;;3.08;2.38;;;;;;;;;;10360897;28;20034;-82
2022/06/06 14:34:43;;;;;;;4.97;3.22;;;;;;;;;;10432823;28;20049;-80
2022/06/06 14:39:49;;;;;;;6.65;5.13;;;;;;;;;;10421053;28;20036;-81
2022/06/06 15:02:53;;;;;;;5.72;4.43;;;;;;;;;;10090548;29;20047;-82
2022/06/06 15:39:34;;;;;;;8.60;6.55;;;;;;;;;;10448073;28;20144;-82
2022/06/06 15:44:38;;;;;;;8.10;5.57;;;;;;;;;;10442439;28;20061;-81
2022/06/06 15:49:54;;;;;;;5.15;3.65;;;;;;;;;;10474997;23;20048;-79
2022/06/06 15:55:04;;;;;;;6.78;5.43;;;;;;;;;;10456752;28;20071;-83
2022/06/06 16:00:19;;;;;;;3.72;3.35;;;;;;;;;;10452623;28;20219;-83
2022/06/06 16:05:33;;;;;;;5.95;3.80;;;;;;;;;;10439939;28;20041;-81
2022/06/06 16:10:52;;;;;;;6.20;4.40;;;;;;;;;;10462129;28;20134;-82
2022/06/06 16:16:01;;;;;;;6.55;4.45;;;;;;;;;;10474944;28;20105;-80
2022/06/06 16:21:05;;;;;;;6.60;4.95;;;;;;;;;;10487334;28;20047;-80
2022/06/06 16:26:15;;;;;;;4.22;3.70;;;;;;;;;;10485021;28;20365;-82
2022/06/06 16:31:30;;;;;;;4.60;4.07;;;;;;;;;;10483031;28;20060;-81
2022/06/06 16:36:50;;;;;;;5.22;4.03;;;;;;;;;;10443799;28;20070;-81
2022/06/06 16:53:08;;;;;;;5.90;4.20;;;;;;;;;;10485559;28;20388;-81
2022/06/06 16:58:23;;;;;;;4.43;4.00;;;;;;;;;;10421165;28;20048;-82
2022/06/06 17:09:13;;;;;;;16.77;12.27;;;;;;;;;;10434462;28;21623;-83
2022/06/06 17:14:36;;;;;;;;;;;;;;;;;;;;;
2022/06/06 17:20:16;;;;;;;3.58;3.28;;;;;;;;;;10442072;28;20151;-80
2022/06/06 17:25:35;;;;;;;9.18;7.00;;;;;;;;;;10438005;28;20045;-81
2022/06/06 17:30:38;;;;;;;5.25;3.88;;;;;;;;;;10447855;28;20091;-82
2022/06/06 17:35:57;;;;;;;4.60;3.88;;;;;;;;;;10482696;28;20036;-82
2022/06/06 17:41:03;;;;;;;6.07;5.03;;;;;;;;;;10452193;28;20046;-84
2022/06/06 17:46:25;;;;;;;5.28;4.40;;;;;;;;;;10447812;28;20052;-79
2022/06/06 17:51:45;;;;;;;3.50;3.20;;;;;;;;;;10457468;28;20056;-83
2022/06/06 17:57:11;;;;;;;3.58;3.15;;;;;;;;;;10450076;28;20403;-80
2022/06/06 18:02:30;;;;;;;3.00;2.70;;;;;;;;;;10440684;28;20165;-82
2022/06/06 18:07:50;;;;;;;3.40;3.10;;;;;;;;;;10480994;28;20143;-81
2022/06/06 18:13:11;;;;;;;3.53;3.22;;;;;;;;;;10489549;28;20079;-79
2022/06/06 18:18:22;;;;;;;6.78;6.03;;;;;;;;;;10468999;28;20036;-80
2022/06/06 18:23:22;;;;;;;5.00;4.18;;;;;;;;;;10438252;28;20056;-79
2022/06/06 18:28:27;;;;;;;5.68;4.05;;;;;;;;;;10458741;28;20099;-81
2022/06/06 18:33:34;;;;;;;4.78;4.03;;;;;;;;;;10483638;28;20056;-77
2022/06/06 18:38:35;;;;;;;4.30;3.75;;;;;;;;;;10477257;28;20045;-79
2022/06/06 18:43:40;;;;;;;6.97;4.60;;;;;;;;;;10466188;28;20044;-81
2022/06/06 18:48:45;;;;;;;4.45;3.67;;;;;;;;;;10468096;28;20083;-77
2022/06/06 18:53:49;;;;;;;4.10;3.70;;;;;;;;;;10482048;28;20045;-79
2022/06/06 18:58:54;;;;;;;4.47;3.15;;;;;;;;;;10488298;28;20049;-80
2022/06/06 19:03:58;;;;;;;3.25;2.95;;;;;;;;;;10474023;28;20071;-80
2022/06/06 19:09:00;;;;;;;3.92;3.33;;;;;;;;;;10470356;28;20067;-79
2022/06/06 19:14:12;;;;;;;4.33;3.93;;;;;;;;;;10462981;28;20045;-79
2022/06/06 19:19:20;;;;;;;4.57;4.17;;;;;;;;;;10467237;28;20040;-74
2022/06/06 19:24:22;;;;;;;4.78;3.35;;;;;;;;;;10468691;28;20089;-75
2022/06/06 19:29:27;;;;;;;3.60;3.30;;;;;;;;;;10459254;28;20381;-76
2022/06/06 19:34:28;;;;;;;4.10;3.35;;;;;;;;;;10443898;28;20083;-75
2022/06/06 19:39:33;;;;;;;4.70;3.20;;;;;;;;;;10435311;28;20481;-73
2022/06/06 19:44:35;;;;;;;4.80;3.65;;;;;;;;;;10459642;28;20041;-75
2022/06/06 19:49:37;;;;;;;4.95;4.20;;;;;;;;;;10467257;28;20056;-75
2022/06/06 19:54:40;;;;;;;4.55;3.78;;;;;;;;;;10463694;28;20041;-75
2022/06/06 19:59:40;;;;;;;;;;;;;;;;;;10486839;28;20048;-75
2022/06/06 20:04:42;;;;;;;5.05;3.65;;;;;;;;;;10454279;28;19917;-75
2022/06/06 20:09:52;;;;;;;3.70;3.40;;;;;;;;;;10454841;28;20056;-75
2022/06/06 20:15:01;;;;;;;4.68;3.47;;;;;;;;;;10467311;28;20058;-81
2022/06/06 20:20:22;;;;;;;3.65;3.30;;;;;;;;;;10454111;28;20041;-82
2022/06/06 20:25:27;;;;;;;4.25;3.85;;;;;;;;;;10457297;28;20044;-82
2022/06/06 20:30:29;;;;;;;4.18;3.80;;;;;;;;;;10452121;28;20052;-79
2022/06/06 20:35:32;;;;;;;5.90;5.00;;;;;;;;;;10512594;28;20035;-82
2022/06/06 20:40:52;;;;;;;4.28;3.85;;;;;;;;;;10467366;28;20036;-82
2022/06/06 20:45:55;;;;;;;4.57;4.18;;;;;;;;;;10496183;28;20068;-83
2022/06/06 20:50:58;;;;;;;4.55;4.00;;;;;;;;;;10449908;28;20052;-81
2022/06/06 20:56:27;;;;;;;5.30;4.72;;;;;;;;;;10474914;28;20063;-80
2022/06/06 21:01:32;;;;;;;4.47;4.03;;;;;;;;;;10508888;28;20051;-82
2022/06/06 21:06:35;;;;;;;4.22;3.63;;;;;;;;;;10488064;28;20042;-83
2022/06/06 21:11:37;;;;;;;6.00;4.50;;;;;;;;;;10453393;28;20057;-75
2022/06/06 21:16:38;;;;;;;5.07;4.47;;;;;;;;;;10437491;28;20164;-76
2022/06/06 21:21:39;;;;;;;6.45;4.10;;;;;;;;;;10434732;28;20754;-75
2022/06/06 21:26:40;;;;;;;4.80;4.30;;;;;;;;;;10474496;28;20124;-75
2022/06/06 21:31:40;;;;;;;5.10;4.07;;;;;;;;;;10470268;28;20048;-75
2022/06/06 21:36:41;;;;;;;4.50;3.90;;;;;;;;;;10434778;28;20090;-77
2022/06/06 21:41:41;;;;;;;4.20;3.80;;;;;;;;;;10451410;28;20278;-77
2022/06/06 21:46:41;;;;;;;7.18;4.50;;;;;;;;;;10461122;28;20156;-78
2022/06/06 21:51:42;;;;;;;4.20;3.80;;;;;;;;;;10433102;28;20049;-76
2022/06/06 21:56:48;;;;;;;4.55;4.00;;;;;;;;;;10466955;28;20040;-75
2022/06/06 22:01:49;;;;;;;4.53;4.10;;;;;;;;;;10472451;28;20048;-73
2022/06/06 22:06:50;;;;;;;4.75;4.30;;;;;;;;;;10459613;28;20471;-75
2022/06/06 22:11:52;;;;;;;4.60;4.15;;;;;;;;;;10473438;28;20123;-76
2022/06/06 22:16:52;;;;;;;4.50;4.10;;;;;;;;;;10466466;28;20044;-75
2022/06/06 22:21:53;;;;;;;4.40;3.90;;;;;;;;;;10468226;28;20343;-76
2022/06/06 22:26:53;;;;;;;3.83;3.53;;;;;;;;;;10435304;28;20601;-77
2022/06/06 22:31:54;;;;;;;4.80;3.92;;;;;;;;;;10464342;28;20093;-75
2022/06/06 22:36:54;;;;;;;4.50;4.10;;;;;;;;;;10483743;28;20143;-75
2022/06/06 22:41:55;;;;;;;4.22;3.75;;;;;;;;;;10456879;28;20049;-77
2022/06/06 22:46:56;;;;;;;4.28;3.88;;;;;;;;;;10492515;28;20048;-75
2022/06/06 22:51:56;;;;;;;3.70;3.40;;;;;;;;;;10489108;28;20080;-76
2022/06/06 22:56:57;;;;;;;4.75;4.28;;;;;;;;;;10490227;28;20086;-75
2022/06/06 23:01:57;;;;;;;4.37;3.93;;;;;;;;;;10453184;28;20061;-75
2022/06/06 23:07:00;;;;;;;4.50;4.10;;;;;;;;;;10458112;28;20393;-76
2022/06/06 23:12:00;;;;;;;4.93;4.30;;;;;;;;;;10470331;28;20061;-75
2022/06/06 23:17:01;;;;;;;5.80;4.40;;;;;;;;;;10465240;28;20059;-75
2022/06/06 23:22:01;;;;;;;4.57;4.10;;;;;;;;;;10473490;28;20037;-77
2022/06/06 23:27:01;;;;;;;5.35;4.85;;;;;;;;;;10447490;28;20279;-75
2022/06/06 23:32:02;;;;;;;4.90;4.40;;;;;;;;;;10470947;28;20053;-75
2022/06/06 23:37:15;;;;;;;4.82;4.38;;;;;;;;;;10469920;28;20040;-76
2022/06/06 23:42:16;;;;;;;5.00;4.40;;;;;;;;;;10484761;28;20377;-75
2022/06/06 23:52:41;;;;;;;4.68;4.28;;;;;;;;;;10489352;28;20399;-76
2022/06/06 23:57:42;;;;;;;4.82;4.30;;;;;;;;;;10440475;28;20053;-77
